sensor_id;sensor_type;location;lat;lon;timestamp;temperature;humidity
20795;DHT22;28087;-33.874;151.240;2022-10-31T00:02:03;21.50;99.90
20795;DHT22;28087;-33.874;151.240;2022-10-31T00:04:40;21.50;99.90
20795;DHT22;28087;-33.874;151.240;2022-10-31T00:07:17;21.60;99.90
20795;DHT22;28087;-33.874;151.240;2022-10-31T00:09:52;21.60;99.90
20795;DHT22;28087;-33.874;151.240;2022-10-31T00:12:29;21.60;99.90
20795;DHT22;28087;-33.874;151.240;2022-10-31T00:15:04;21.50;99.90
20795;DHT22;28087;-33.874;151.240;2022-10-31T00:17:42;21.40;99.90
20795;DHT22;28087;-33.874;151.240;2022-10-31T00:20:18;21.40;99.90
20795;DHT22;28087;-33.874;151.240;2022-10-31T00:22:54;21.50;99.90
20795;DHT22;28087;-33.874;151.240;2022-10-31T00:25:34;21.30;99.90
20795;DHT22;28087;-33.874;151.240;2022-10-31T00:28:11;21.40;99.90
20795;DHT22;28087;-33.874;151.240;2022-10-31T00:30:46;21.40;99.90
20795;DHT22;28087;-33.874;151.240;2022-10-31T00:33:23;21.50;99.90
20795;DHT22;28087;-33.874;151.240;2022-10-31T00:35:59;21.50;99.90
20795;DHT22;28087;-33.874;151.240;2022-10-31T00:38:35;21.50;99.90
20795;DHT22;28087;-33.874;151.240;2022-10-31T00:41:11;21.50;99.90
20795;DHT22;28087;-33.874;151.240;2022-10-31T00:43:49;21.60;99.90
20795;DHT22;28087;-33.874;151.240;2022-10-31T00:46:25;21.60;99.90
20795;DHT22;28087;-33.874;151.240;2022-10-31T00:49:02;21.70;99.90
20795;DHT22;28087;-33.874;151.240;2022-10-31T00:51:38;21.80;99.90
20795;DHT22;28087;-33.874;151.240;2022-10-31T00:54:14;21.90;99.90
20795;DHT22;28087;-33.874;151.240;2022-10-31T00:56:50;22.00;99.90
20795;DHT22;28087;-33.874;151.240;2022-10-31T00:59:25;22.00;99.90
20795;DHT22;28087;-33.874;151.240;2022-10-31T01:02:00;22.10;99.90
20795;DHT22;28087;-33.874;151.240;2022-10-31T01:04:38;22.20;99.90
20795;DHT22;28087;-33.874;151.240;2022-10-31T01:07:13;22.20;99.90
20795;DHT22;28087;-33.874;151.240;2022-10-31T01:09:48;22.30;99.90
20795;DHT22;28087;-33.874;151.240;2022-10-31T01:12:24;22.30;99.90
20795;DHT22;28087;-33.874;151.240;2022-10-31T01:15:00;22.30;99.90
20795;DHT22;28087;-33.874;151.240;2022-10-31T01:22:56;22.60;99.90
20795;DHT22;28087;-33.874;151.240;2022-10-31T01:25:32;22.80;99.90
20795;DHT22;28087;-33.874;151.240;2022-10-31T01:30:45;22.90;99.90
20795;DHT22;28087;-33.874;151.240;2022-10-31T01:35:59;22.80;99.90
20795;DHT22;28087;-33.874;151.240;2022-10-31T01:38:35;23.00;99.90
20795;DHT22;28087;-33.874;151.240;2022-10-31T01:46:29;22.70;99.90
20795;DHT22;28087;-33.874;151.240;2022-10-31T01:49:12;22.60;99.90
20795;DHT22;28087;-33.874;151.240;2022-10-31T01:51:57;22.40;99.90
20795;DHT22;28087;-33.874;151.240;2022-10-31T02:02:45;22.40;99.90
20795;DHT22;28087;-33.874;151.240;2022-10-31T02:10:48;22.40;99.90
20795;DHT22;28087;-33.874;151.240;2022-10-31T02:13:26;22.30;99.90
20795;DHT22;28087;-33.874;151.240;2022-10-31T02:16:05;22.40;99.90
20795;DHT22;28087;-33.874;151.240;2022-10-31T02:18:42;22.40;99.90
20795;DHT22;28087;-33.874;151.240;2022-10-31T02:21:21;22.40;99.90
20795;DHT22;28087;-33.874;151.240;2022-10-31T02:27:16;22.80;99.90
20795;DHT22;28087;-33.874;151.240;2022-10-31T02:30:12;23.00;99.90
20795;DHT22;28087;-33.874;151.240;2022-10-31T02:33:02;23.00;99.90
20795;DHT22;28087;-33.874;151.240;2022-10-31T02:35:52;23.20;99.90
20795;DHT22;28087;-33.874;151.240;2022-10-31T02:38:46;23.20;99.90
20795;DHT22;28087;-33.874;151.240;2022-10-31T02:41:46;23.40;99.90
20795;DHT22;28087;-33.874;151.240;2022-10-31T02:44:28;23.50;99.90
20795;DHT22;28087;-33.874;151.240;2022-10-31T02:47:08;23.60;99.90
20795;DHT22;28087;-33.874;151.240;2022-10-31T02:49:57;23.80;99.90
20795;DHT22;28087;-33.874;151.240;2022-10-31T02:52:35;23.90;99.90
20795;DHT22;28087;-33.874;151.240;2022-10-31T02:58:39;24.10;99.90
20795;DHT22;28087;-33.874;151.240;2022-10-31T03:04:43;24.20;99.90
20795;DHT22;28087;-33.874;151.240;2022-10-31T03:07:28;24.30;99.90
20795;DHT22;28087;-33.874;151.240;2022-10-31T03:10:13;24.20;99.90
20795;DHT22;28087;-33.874;151.240;2022-10-31T03:12:58;24.20;99.90
20795;DHT22;28087;-33.874;151.240;2022-10-31T03:15:39;24.20;99.90
20795;DHT22;28087;-33.874;151.240;2022-10-31T03:18:18;24.20;99.90
20795;DHT22;28087;-33.874;151.240;2022-10-31T03:21:01;24.30;99.90
20795;DHT22;28087;-33.874;151.240;2022-10-31T03:23:44;24.30;99.90
20795;DHT22;28087;-33.874;151.240;2022-10-31T03:26:23;24.30;99.90
20795;DHT22;28087;-33.874;151.240;2022-10-31T03:29:19;24.30;99.90
20795;DHT22;28087;-33.874;151.240;2022-10-31T03:32:02;24.30;99.90
20795;DHT22;28087;-33.874;151.240;2022-10-31T03:34:40;24.40;99.90
20795;DHT22;28087;-33.874;151.240;2022-10-31T03:37:22;24.40;99.90
20795;DHT22;28087;-33.874;151.240;2022-10-31T03:40:03;24.40;99.90
20795;DHT22;28087;-33.874;151.240;2022-10-31T03:42:43;24.40;99.90
20795;DHT22;28087;-33.874;151.240;2022-10-31T03:45:25;24.50;99.90
20795;DHT22;28087;-33.874;151.240;2022-10-31T03:48:02;24.50;99.90
20795;DHT22;28087;-33.874;151.240;2022-10-31T03:50:43;24.50;99.90
20795;DHT22;28087;-33.874;151.240;2022-10-31T03:53:26;24.50;99.90
20795;DHT22;28087;-33.874;151.240;2022-10-31T03:56:12;24.50;99.90
20795;DHT22;28087;-33.874;151.240;2022-10-31T03:58:58;24.50;99.90
20795;DHT22;28087;-33.874;151.240;2022-10-31T04:01:37;24.50;99.90
20795;DHT22;28087;-33.874;151.240;2022-10-31T04:04:15;24.60;99.90
20795;DHT22;28087;-33.874;151.240;2022-10-31T04:06:53;24.60;99.90
20795;DHT22;28087;-33.874;151.240;2022-10-31T04:09:34;24.70;99.90
20795;DHT22;28087;-33.874;151.240;2022-10-31T04:12:13;24.70;99.90
20795;DHT22;28087;-33.874;151.240;2022-10-31T04:14:49;24.70;99.90
20795;DHT22;28087;-33.874;151.240;2022-10-31T04:17:29;24.70;99.90
20795;DHT22;28087;-33.874;151.240;2022-10-31T04:20:07;24.60;99.90
20795;DHT22;28087;-33.874;151.240;2022-10-31T04:22:46;24.70;99.90
20795;DHT22;28087;-33.874;151.240;2022-10-31T04:25:22;24.70;99.90
20795;DHT22;28087;-33.874;151.240;2022-10-31T04:28:03;24.70;99.90
20795;DHT22;28087;-33.874;151.240;2022-10-31T04:30:39;24.70;99.90
20795;DHT22;28087;-33.874;151.240;2022-10-31T04:33:17;24.60;99.90
20795;DHT22;28087;-33.874;151.240;2022-10-31T04:35:53;24.60;99.90
20795;DHT22;28087;-33.874;151.240;2022-10-31T04:38:31;24.60;99.90
20795;DHT22;28087;-33.874;151.240;2022-10-31T04:41:13;24.70;99.90
20795;DHT22;28087;-33.874;151.240;2022-10-31T04:43:57;24.70;99.90
20795;DHT22;28087;-33.874;151.240;2022-10-31T04:46:33;24.70;99.90
20795;DHT22;28087;-33.874;151.240;2022-10-31T04:49:10;24.80;99.90
20795;DHT22;28087;-33.874;151.240;2022-10-31T04:51:47;24.70;99.90
20795;DHT22;28087;-33.874;151.240;2022-10-31T04:54:24;24.70;99.90
20795;DHT22;28087;-33.874;151.240;2022-10-31T04:57:17;24.80;99.90
20795;DHT22;28087;-33.874;151.240;2022-10-31T04:59:55;24.80;99.90
20795;DHT22;28087;-33.874;151.240;2022-10-31T05:02:32;24.80;99.90
20795;DHT22;28087;-33.874;151.240;2022-10-31T05:05:15;24.90;99.90
20795;DHT22;28087;-33.874;151.240;2022-10-31T05:07:58;25.00;99.90
20795;DHT22;28087;-33.874;151.240;2022-10-31T05:10:34;25.00;99.90
20795;DHT22;28087;-33.874;151.240;2022-10-31T05:13:10;25.00;99.90
20795;DHT22;28087;-33.874;151.240;2022-10-31T05:16:23;25.10;99.90
20795;DHT22;28087;-33.874;151.240;2022-10-31T05:19:30;25.10;99.90
20795;DHT22;28087;-33.874;151.240;2022-10-31T05:22:43;25.10;99.90
20795;DHT22;28087;-33.874;151.240;2022-10-31T05:25:19;25.10;99.90
20795;DHT22;28087;-33.874;151.240;2022-10-31T05:27:56;25.10;99.90
20795;DHT22;28087;-33.874;151.240;2022-10-31T05:30:33;25.10;99.90
20795;DHT22;28087;-33.874;151.240;2022-10-31T05:33:15;25.10;99.90
20795;DHT22;28087;-33.874;151.240;2022-10-31T05:36:09;25.10;99.90
20795;DHT22;28087;-33.874;151.240;2022-10-31T05:39:04;25.10;99.90
20795;DHT22;28087;-33.874;151.240;2022-10-31T05:41:44;25.10;99.90
20795;DHT22;28087;-33.874;151.240;2022-10-31T05:44:27;25.10;99.90
20795;DHT22;28087;-33.874;151.240;2022-10-31T05:47:23;25.10;99.90
20795;DHT22;28087;-33.874;151.240;2022-10-31T05:50:01;25.20;99.90
20795;DHT22;28087;-33.874;151.240;2022-10-31T05:52:38;25.20;99.90
20795;DHT22;28087;-33.874;151.240;2022-10-31T05:55:32;25.30;99.90
20795;DHT22;28087;-33.874;151.240;2022-10-31T05:58:21;25.20;99.90
20795;DHT22;28087;-33.874;151.240;2022-10-31T06:01:05;25.30;99.90
20795;DHT22;28087;-33.874;151.240;2022-10-31T06:03:46;25.40;99.90
20795;DHT22;28087;-33.874;151.240;2022-10-31T06:06:27;25.40;99.90
20795;DHT22;28087;-33.874;151.240;2022-10-31T06:09:03;25.40;99.90
20795;DHT22;28087;-33.874;151.240;2022-10-31T06:11:39;25.40;99.90
20795;DHT22;28087;-33.874;151.240;2022-10-31T06:14:37;25.40;99.90
20795;DHT22;28087;-33.874;151.240;2022-10-31T06:17:12;25.40;99.90
20795;DHT22;28087;-33.874;151.240;2022-10-31T06:19:50;25.30;99.90
20795;DHT22;28087;-33.874;151.240;2022-10-31T06:22:30;25.30;99.90
20795;DHT22;28087;-33.874;151.240;2022-10-31T06:25:06;25.20;99.90
20795;DHT22;28087;-33.874;151.240;2022-10-31T06:27:46;25.20;99.90
20795;DHT22;28087;-33.874;151.240;2022-10-31T06:30:31;25.20;99.90
20795;DHT22;28087;-33.874;151.240;2022-10-31T06:33:11;25.30;99.90
20795;DHT22;28087;-33.874;151.240;2022-10-31T06:35:58;25.30;99.90
20795;DHT22;28087;-33.874;151.240;2022-10-31T06:38:36;25.40;99.90
20795;DHT22;28087;-33.874;151.240;2022-10-31T06:41:12;25.40;99.90
20795;DHT22;28087;-33.874;151.240;2022-10-31T06:43:51;25.40;99.90
20795;DHT22;28087;-33.874;151.240;2022-10-31T06:46:49;25.40;99.90
20795;DHT22;28087;-33.874;151.240;2022-10-31T06:50:00;25.40;99.90
20795;DHT22;28087;-33.874;151.240;2022-10-31T06:52:35;25.40;99.90
20795;DHT22;28087;-33.874;151.240;2022-10-31T06:55:13;25.40;99.90
20795;DHT22;28087;-33.874;151.240;2022-10-31T06:57:53;25.40;99.90
20795;DHT22;28087;-33.874;151.240;2022-10-31T07:00:33;25.40;99.90
20795;DHT22;28087;-33.874;151.240;2022-10-31T07:03:12;25.40;99.90
20795;DHT22;28087;-33.874;151.240;2022-10-31T07:05:48;25.40;99.90
20795;DHT22;28087;-33.874;151.240;2022-10-31T07:08:24;25.40;99.90
20795;DHT22;28087;-33.874;151.240;2022-10-31T07:11:02;25.40;99.90
20795;DHT22;28087;-33.874;151.240;2022-10-31T07:13:38;25.40;99.90
20795;DHT22;28087;-33.874;151.240;2022-10-31T07:16:14;25.40;99.90
20795;DHT22;28087;-33.874;151.240;2022-10-31T07:18:50;25.40;99.90
20795;DHT22;28087;-33.874;151.240;2022-10-31T07:21:26;25.40;99.90
20795;DHT22;28087;-33.874;151.240;2022-10-31T07:24:03;25.40;99.90
20795;DHT22;28087;-33.874;151.240;2022-10-31T07:26:46;25.40;99.90
20795;DHT22;28087;-33.874;151.240;2022-10-31T07:29:22;25.40;99.90
20795;DHT22;28087;-33.874;151.240;2022-10-31T07:32:01;25.40;99.90
20795;DHT22;28087;-33.874;151.240;2022-10-31T07:34:40;25.40;99.90
20795;DHT22;28087;-33.874;151.240;2022-10-31T07:37:28;25.40;99.90
20795;DHT22;28087;-33.874;151.240;2022-10-31T07:40:04;25.40;99.90
20795;DHT22;28087;-33.874;151.240;2022-10-31T07:42:43;25.40;99.90
20795;DHT22;28087;-33.874;151.240;2022-10-31T07:45:55;25.40;99.90
20795;DHT22;28087;-33.874;151.240;2022-10-31T07:49:03;25.40;99.90
20795;DHT22;28087;-33.874;151.240;2022-10-31T07:51:56;25.30;99.90
20795;DHT22;28087;-33.874;151.240;2022-10-31T07:54:50;25.40;99.90
20795;DHT22;28087;-33.874;151.240;2022-10-31T07:57:26;25.40;99.90
20795;DHT22;28087;-33.874;151.240;2022-10-31T08:00:07;25.40;99.90
20795;DHT22;28087;-33.874;151.240;2022-10-31T08:02:46;25.40;99.90
20795;DHT22;28087;-33.874;151.240;2022-10-31T08:05:52;25.40;99.90
20795;DHT22;28087;-33.874;151.240;2022-10-31T08:08:45;25.40;99.90
20795;DHT22;28087;-33.874;151.240;2022-10-31T08:11:21;25.30;99.90
20795;DHT22;28087;-33.874;151.240;2022-10-31T08:13:57;25.30;99.90
20795;DHT22;28087;-33.874;151.240;2022-10-31T08:16:35;25.30;99.90
20795;DHT22;28087;-33.874;151.240;2022-10-31T08:19:14;25.40;99.90
20795;DHT22;28087;-33.874;151.240;2022-10-31T08:21:52;25.40;99.90
20795;DHT22;28087;-33.874;151.240;2022-10-31T08:24:28;25.40;99.90
20795;DHT22;28087;-33.874;151.240;2022-10-31T08:27:03;25.40;99.90
20795;DHT22;28087;-33.874;151.240;2022-10-31T08:29:42;25.40;99.90
20795;DHT22;28087;-33.874;151.240;2022-10-31T08:32:19;25.40;99.90
20795;DHT22;28087;-33.874;151.240;2022-10-31T08:34:59;25.40;99.90
20795;DHT22;28087;-33.874;151.240;2022-10-31T08:37:54;25.40;99.90
20795;DHT22;28087;-33.874;151.240;2022-10-31T08:40:32;25.40;99.90
20795;DHT22;28087;-33.874;151.240;2022-10-31T08:43:10;25.40;99.90
20795;DHT22;28087;-33.874;151.240;2022-10-31T08:45:48;25.40;99.90
20795;DHT22;28087;-33.874;151.240;2022-10-31T08:48:32;25.40;99.90
20795;DHT22;28087;-33.874;151.240;2022-10-31T08:51:08;25.30;99.90
20795;DHT22;28087;-33.874;151.240;2022-10-31T08:53:46;25.30;99.90
20795;DHT22;28087;-33.874;151.240;2022-10-31T08:56:40;25.30;99.90
20795;DHT22;28087;-33.874;151.240;2022-10-31T08:59:32;25.20;99.90
20795;DHT22;28087;-33.874;151.240;2022-10-31T09:02:31;25.20;99.90
20795;DHT22;28087;-33.874;151.240;2022-10-31T09:05:09;25.20;99.90
20795;DHT22;28087;-33.874;151.240;2022-10-31T09:07:45;25.20;99.90
20795;DHT22;28087;-33.874;151.240;2022-10-31T09:10:21;25.20;99.90
20795;DHT22;28087;-33.874;151.240;2022-10-31T09:12:57;25.10;99.90
20795;DHT22;28087;-33.874;151.240;2022-10-31T09:15:53;25.20;99.90
20795;DHT22;28087;-33.874;151.240;2022-10-31T09:18:28;25.10;99.90
20795;DHT22;28087;-33.874;151.240;2022-10-31T09:21:09;25.10;99.90
20795;DHT22;28087;-33.874;151.240;2022-10-31T09:23:52;25.00;99.90
20795;DHT22;28087;-33.874;151.240;2022-10-31T09:26:27;25.00;99.90
20795;DHT22;28087;-33.874;151.240;2022-10-31T09:29:09;25.00;99.90
20795;DHT22;28087;-33.874;151.240;2022-10-31T09:31:46;25.00;99.90
20795;DHT22;28087;-33.874;151.240;2022-10-31T09:34:30;24.90;99.90
20795;DHT22;28087;-33.874;151.240;2022-10-31T09:37:15;24.90;99.90
20795;DHT22;28087;-33.874;151.240;2022-10-31T09:39:50;24.80;99.90
20795;DHT22;28087;-33.874;151.240;2022-10-31T09:42:55;24.80;99.90
20795;DHT22;28087;-33.874;151.240;2022-10-31T09:45:38;24.70;99.90
20795;DHT22;28087;-33.874;151.240;2022-10-31T09:48:44;24.60;99.90
20795;DHT22;28087;-33.874;151.240;2022-10-31T09:51:33;24.60;99.90
20795;DHT22;28087;-33.874;151.240;2022-10-31T09:54:30;24.50;99.90
20795;DHT22;28087;-33.874;151.240;2022-10-31T09:57:12;24.50;99.90
20795;DHT22;28087;-33.874;151.240;2022-10-31T09:59:50;24.50;99.90
20795;DHT22;28087;-33.874;151.240;2022-10-31T10:02:30;24.40;99.90
20795;DHT22;28087;-33.874;151.240;2022-10-31T10:05:12;24.40;99.90
20795;DHT22;28087;-33.874;151.240;2022-10-31T10:07:55;24.40;99.90
20795;DHT22;28087;-33.874;151.240;2022-10-31T10:11:16;24.30;99.90
20795;DHT22;28087;-33.874;151.240;2022-10-31T10:14:29;24.30;99.90
20795;DHT22;28087;-33.874;151.240;2022-10-31T10:17:22;24.30;99.90
20795;DHT22;28087;-33.874;151.240;2022-10-31T10:20:16;24.30;99.90
20795;DHT22;28087;-33.874;151.240;2022-10-31T10:23:08;24.20;99.90
20795;DHT22;28087;-33.874;151.240;2022-10-31T10:25:49;24.20;99.90
20795;DHT22;28087;-33.874;151.240;2022-10-31T10:28:32;24.20;99.90
20795;DHT22;28087;-33.874;151.240;2022-10-31T10:31:12;24.20;99.90
20795;DHT22;28087;-33.874;151.240;2022-10-31T10:33:58;24.10;99.90
20795;DHT22;28087;-33.874;151.240;2022-10-31T10:36:41;24.10;99.90
20795;DHT22;28087;-33.874;151.240;2022-10-31T10:39:20;24.10;99.90
20795;DHT22;28087;-33.874;151.240;2022-10-31T10:42:00;24.10;99.90
20795;DHT22;28087;-33.874;151.240;2022-10-31T10:44:52;24.00;99.90
20795;DHT22;28087;-33.874;151.240;2022-10-31T10:47:44;24.10;99.90
20795;DHT22;28087;-33.874;151.240;2022-10-31T10:50:27;24.10;99.90
20795;DHT22;28087;-33.874;151.240;2022-10-31T10:53:12;24.10;99.90
20795;DHT22;28087;-33.874;151.240;2022-10-31T10:55:58;24.00;99.90
20795;DHT22;28087;-33.874;151.240;2022-10-31T10:58:35;24.00;99.90
20795;DHT22;28087;-33.874;151.240;2022-10-31T11:01:14;24.00;99.90
20795;DHT22;28087;-33.874;151.240;2022-10-31T11:03:51;24.00;99.90
20795;DHT22;28087;-33.874;151.240;2022-10-31T11:06:28;24.00;99.90
20795;DHT22;28087;-33.874;151.240;2022-10-31T11:09:10;24.00;99.90
20795;DHT22;28087;-33.874;151.240;2022-10-31T11:11:46;24.00;99.90
20795;DHT22;28087;-33.874;151.240;2022-10-31T11:14:23;24.00;99.90
20795;DHT22;28087;-33.874;151.240;2022-10-31T11:17:15;23.90;99.90
20795;DHT22;28087;-33.874;151.240;2022-10-31T11:20:03;23.90;99.90
20795;DHT22;28087;-33.874;151.240;2022-10-31T11:22:47;23.90;99.90
20795;DHT22;28087;-33.874;151.240;2022-10-31T11:25:23;23.90;99.90
20795;DHT22;28087;-33.874;151.240;2022-10-31T11:28:03;23.90;99.90
20795;DHT22;28087;-33.874;151.240;2022-10-31T11:30:45;23.90;99.90
20795;DHT22;28087;-33.874;151.240;2022-10-31T11:33:29;23.90;99.90
20795;DHT22;28087;-33.874;151.240;2022-10-31T11:36:18;23.90;99.90
20795;DHT22;28087;-33.874;151.240;2022-10-31T11:38:57;23.80;99.90
20795;DHT22;28087;-33.874;151.240;2022-10-31T11:41:36;23.80;99.90
20795;DHT22;28087;-33.874;151.240;2022-10-31T11:44:17;23.80;99.90
20795;DHT22;28087;-33.874;151.240;2022-10-31T11:46:54;23.80;99.90
20795;DHT22;28087;-33.874;151.240;2022-10-31T11:49:35;23.80;99.90
20795;DHT22;28087;-33.874;151.240;2022-10-31T11:52:17;23.70;99.90
20795;DHT22;28087;-33.874;151.240;2022-10-31T11:54:55;23.80;99.90
20795;DHT22;28087;-33.874;151.240;2022-10-31T11:57:33;23.70;99.90
20795;DHT22;28087;-33.874;151.240;2022-10-31T12:00:21;23.70;99.90
20795;DHT22;28087;-33.874;151.240;2022-10-31T12:03:15;23.70;99.90
20795;DHT22;28087;-33.874;151.240;2022-10-31T12:05:58;23.70;99.90
20795;DHT22;28087;-33.874;151.240;2022-10-31T12:08:37;23.70;99.90
20795;DHT22;28087;-33.874;151.240;2022-10-31T12:11:39;23.60;99.90
20795;DHT22;28087;-33.874;151.240;2022-10-31T12:14:27;23.60;99.90
20795;DHT22;28087;-33.874;151.240;2022-10-31T12:17:12;23.60;99.90
20795;DHT22;28087;-33.874;151.240;2022-10-31T12:19:59;23.50;99.90
20795;DHT22;28087;-33.874;151.240;2022-10-31T12:22:44;23.50;99.90
20795;DHT22;28087;-33.874;151.240;2022-10-31T12:25:36;23.50;99.90
20795;DHT22;28087;-33.874;151.240;2022-10-31T12:28:41;23.50;99.90
20795;DHT22;28087;-33.874;151.240;2022-10-31T12:31:39;23.40;99.90
20795;DHT22;28087;-33.874;151.240;2022-10-31T12:34:33;23.40;99.90
20795;DHT22;28087;-33.874;151.240;2022-10-31T12:37:28;23.30;99.90
20795;DHT22;28087;-33.874;151.240;2022-10-31T12:40:21;23.30;99.90
20795;DHT22;28087;-33.874;151.240;2022-10-31T12:43:12;23.20;99.90
20795;DHT22;28087;-33.874;151.240;2022-10-31T12:45:54;23.20;99.90
20795;DHT22;28087;-33.874;151.240;2022-10-31T12:48:49;23.20;99.90
20795;DHT22;28087;-33.874;151.240;2022-10-31T12:51:36;23.10;99.90
20795;DHT22;28087;-33.874;151.240;2022-10-31T12:57:31;23.10;99.90
20795;DHT22;28087;-33.874;151.240;2022-10-31T13:00:13;23.00;99.90
20795;DHT22;28087;-33.874;151.240;2022-10-31T13:03:01;23.00;99.90
20795;DHT22;28087;-33.874;151.240;2022-10-31T13:05:43;23.00;99.90
20795;DHT22;28087;-33.874;151.240;2022-10-31T13:08:21;23.00;99.90
20795;DHT22;28087;-33.874;151.240;2022-10-31T13:11:08;23.00;99.90
20795;DHT22;28087;-33.874;151.240;2022-10-31T13:13:57;23.00;99.90
20795;DHT22;28087;-33.874;151.240;2022-10-31T13:16:37;22.90;99.90
20795;DHT22;28087;-33.874;151.240;2022-10-31T13:19:18;22.90;99.90
20795;DHT22;28087;-33.874;151.240;2022-10-31T13:22:00;22.90;99.90
20795;DHT22;28087;-33.874;151.240;2022-10-31T13:24:41;22.80;99.90
20795;DHT22;28087;-33.874;151.240;2022-10-31T13:27:22;22.80;99.90
20795;DHT22;28087;-33.874;151.240;2022-10-31T13:30:03;22.80;99.90
20795;DHT22;28087;-33.874;151.240;2022-10-31T13:32:44;22.80;99.90
20795;DHT22;28087;-33.874;151.240;2022-10-31T13:35:29;22.80;99.90
20795;DHT22;28087;-33.874;151.240;2022-10-31T13:38:15;22.80;99.90
20795;DHT22;28087;-33.874;151.240;2022-10-31T13:40:57;22.80;99.90
20795;DHT22;28087;-33.874;151.240;2022-10-31T13:43:53;22.80;99.90
20795;DHT22;28087;-33.874;151.240;2022-10-31T13:46:40;22.80;99.90
20795;DHT22;28087;-33.874;151.240;2022-10-31T13:49:37;22.80;99.90
20795;DHT22;28087;-33.874;151.240;2022-10-31T13:52:23;22.80;99.90
20795;DHT22;28087;-33.874;151.240;2022-10-31T13:55:00;22.90;99.90
20795;DHT22;28087;-33.874;151.240;2022-10-31T13:57:41;23.00;99.90
20795;DHT22;28087;-33.874;151.240;2022-10-31T14:00:24;23.00;99.90
20795;DHT22;28087;-33.874;151.240;2022-10-31T14:03:02;23.00;99.90
20795;DHT22;28087;-33.874;151.240;2022-10-31T14:05:39;23.00;99.90
20795;DHT22;28087;-33.874;151.240;2022-10-31T14:08:19;23.10;99.90
20795;DHT22;28087;-33.874;151.240;2022-10-31T14:10:57;23.10;99.90
20795;DHT22;28087;-33.874;151.240;2022-10-31T14:13:35;23.20;99.90
20795;DHT22;28087;-33.874;151.240;2022-10-31T14:16:20;23.20;99.90
20795;DHT22;28087;-33.874;151.240;2022-10-31T14:19:04;23.20;99.90
20795;DHT22;28087;-33.874;151.240;2022-10-31T14:24:34;23.20;99.90
20795;DHT22;28087;-33.874;151.240;2022-10-31T14:27:35;23.30;99.90
20795;DHT22;28087;-33.874;151.240;2022-10-31T14:30:20;23.30;99.90
20795;DHT22;28087;-33.874;151.240;2022-10-31T14:33:00;23.30;99.90
20795;DHT22;28087;-33.874;151.240;2022-10-31T14:36:00;23.30;99.90
20795;DHT22;28087;-33.874;151.240;2022-10-31T14:38:49;23.50;99.90
20795;DHT22;28087;-33.874;151.240;2022-10-31T14:41:41;23.40;99.90
20795;DHT22;28087;-33.874;151.240;2022-10-31T14:47:37;23.40;99.90
20795;DHT22;28087;-33.874;151.240;2022-10-31T14:50:39;23.40;99.90
20795;DHT22;28087;-33.874;151.240;2022-10-31T14:53:20;23.40;99.90
20795;DHT22;28087;-33.874;151.240;2022-10-31T14:55:59;23.40;99.90
20795;DHT22;28087;-33.874;151.240;2022-10-31T14:58:41;23.40;99.90
20795;DHT22;28087;-33.874;151.240;2022-10-31T15:01:23;23.40;99.90
20795;DHT22;28087;-33.874;151.240;2022-10-31T15:04:05;23.40;99.90
20795;DHT22;28087;-33.874;151.240;2022-10-31T15:07:03;23.40;99.90
20795;DHT22;28087;-33.874;151.240;2022-10-31T15:09:43;23.40;99.90
20795;DHT22;28087;-33.874;151.240;2022-10-31T15:12:25;23.40;99.90
20795;DHT22;28087;-33.874;151.240;2022-10-31T15:15:13;23.40;99.90
20795;DHT22;28087;-33.874;151.240;2022-10-31T15:17:52;23.40;99.90
20795;DHT22;28087;-33.874;151.240;2022-10-31T15:20:33;23.40;99.90
20795;DHT22;28087;-33.874;151.240;2022-10-31T15:23:14;23.40;99.90
20795;DHT22;28087;-33.874;151.240;2022-10-31T15:25:59;23.40;99.90
20795;DHT22;28087;-33.874;151.240;2022-10-31T15:28:39;23.40;99.90
20795;DHT22;28087;-33.874;151.240;2022-10-31T15:31:16;23.40;99.90
20795;DHT22;28087;-33.874;151.240;2022-10-31T15:33:52;23.40;99.90
20795;DHT22;28087;-33.874;151.240;2022-10-31T15:36:29;23.40;99.90
20795;DHT22;28087;-33.874;151.240;2022-10-31T15:39:12;23.40;99.90
20795;DHT22;28087;-33.874;151.240;2022-10-31T15:41:54;23.40;99.90
20795;DHT22;28087;-33.874;151.240;2022-10-31T15:44:33;23.40;99.90
20795;DHT22;28087;-33.874;151.240;2022-10-31T15:47:16;23.40;99.90
20795;DHT22;28087;-33.874;151.240;2022-10-31T15:49:53;23.40;99.90
20795;DHT22;28087;-33.874;151.240;2022-10-31T15:52:34;23.40;99.90
20795;DHT22;28087;-33.874;151.240;2022-10-31T15:55:20;23.40;99.90
20795;DHT22;28087;-33.874;151.240;2022-10-31T15:58:10;23.40;99.90
20795;DHT22;28087;-33.874;151.240;2022-10-31T16:00:58;23.40;99.90
20795;DHT22;28087;-33.874;151.240;2022-10-31T16:03:35;23.40;99.90
20795;DHT22;28087;-33.874;151.240;2022-10-31T16:06:21;23.40;99.90
20795;DHT22;28087;-33.874;151.240;2022-10-31T16:08:59;23.30;99.90
20795;DHT22;28087;-33.874;151.240;2022-10-31T16:11:36;23.30;99.90
20795;DHT22;28087;-33.874;151.240;2022-10-31T16:14:19;23.30;99.90
20795;DHT22;28087;-33.874;151.240;2022-10-31T16:16:56;23.30;99.90
20795;DHT22;28087;-33.874;151.240;2022-10-31T16:19:34;23.30;99.90
20795;DHT22;28087;-33.874;151.240;2022-10-31T16:22:12;23.30;99.90
20795;DHT22;28087;-33.874;151.240;2022-10-31T16:24:51;23.30;99.90
20795;DHT22;28087;-33.874;151.240;2022-10-31T16:27:28;23.30;99.90
20795;DHT22;28087;-33.874;151.240;2022-10-31T16:43:43;23.30;99.90
20795;DHT22;28087;-33.874;151.240;2022-10-31T18:21:00;22.80;99.90
20795;DHT22;28087;-33.874;151.240;2022-10-31T18:28:59;22.40;99.90
20795;DHT22;28087;-33.874;151.240;2022-10-31T18:31:36;22.60;99.90
20795;DHT22;28087;-33.874;151.240;2022-10-31T18:34:12;22.50;99.90
20795;DHT22;28087;-33.874;151.240;2022-10-31T18:36:50;22.40;99.90
20795;DHT22;28087;-33.874;151.240;2022-10-31T18:39:28;22.40;99.90
20795;DHT22;28087;-33.874;151.240;2022-10-31T18:42:03;22.40;99.90
20795;DHT22;28087;-33.874;151.240;2022-10-31T18:44:40;22.30;99.90
20795;DHT22;28087;-33.874;151.240;2022-10-31T18:47:15;22.20;99.90
20795;DHT22;28087;-33.874;151.240;2022-10-31T18:49:51;22.10;99.90
20795;DHT22;28087;-33.874;151.240;2022-10-31T18:52:27;22.10;99.90
20795;DHT22;28087;-33.874;151.240;2022-10-31T18:55:05;22.10;99.90
20795;DHT22;28087;-33.874;151.240;2022-10-31T18:57:42;21.90;99.90
20795;DHT22;28087;-33.874;151.240;2022-10-31T19:00:21;21.90;99.90
20795;DHT22;28087;-33.874;151.240;2022-10-31T19:02:57;21.70;99.90